createdAt,value
2018-06-09T00:03:08.932Z,4.33
2018-06-09T00:07:59.847Z,2.40
2018-06-09T00:12:50.756Z,2.80
2018-06-09T00:17:41.679Z,2.43
2018-06-09T00:22:32.559Z,3.63
2018-06-09T00:27:23.512Z,2.30
2018-06-09T00:32:14.432Z,2.73
2018-06-09T00:37:05.319Z,2.50
2018-06-09T00:41:56.203Z,3.57
2018-06-09T00:46:47.091Z,2.40
2018-06-09T00:51:37.966Z,2.63
2018-06-09T00:56:41.031Z,2.53
2018-06-09T01:01:31.920Z,2.60
2018-06-09T01:06:22.844Z,2.20
2018-06-09T01:11:13.759Z,3.03
2018-06-09T01:16:04.667Z,2.83
2018-06-09T01:20:55.555Z,2.50
2018-06-09T01:25:46.448Z,2.10
2018-06-09T01:30:37.331Z,2.00
2018-06-09T01:35:28.256Z,2.60
2018-06-09T01:40:19.139Z,2.80
2018-06-09T01:45:10.036Z,2.70
2018-06-09T01:50:01.672Z,2.50
2018-06-09T01:54:53.359Z,2.07
2018-06-09T01:59:44.248Z,2.20
2018-06-09T02:04:35.142Z,2.73
2018-06-09T02:09:26.023Z,2.57
2018-06-09T02:14:16.899Z,2.53
2018-06-09T02:19:07.795Z,2.60
2018-06-09T02:23:59.423Z,2.80
2018-06-09T02:28:50.303Z,5.70
2018-06-09T02:33:41.223Z,4.67
2018-06-09T02:38:32.104Z,2.30
2018-06-09T02:43:23.070Z,2.87
2018-06-09T02:48:13.964Z,2.50
2018-06-09T02:53:11.986Z,2.80
2018-06-09T02:58:02.879Z,2.80
2018-06-09T03:02:53.771Z,2.73
2018-06-09T03:07:44.789Z,5.90
2018-06-09T03:12:35.697Z,2.80
2018-06-09T03:17:26.599Z,3.10
2018-06-09T03:22:18.220Z,3.00
2018-06-09T03:27:09.105Z,3.10
2018-06-09T03:31:59.987Z,3.00
2018-06-09T03:36:50.939Z,3.00
2018-06-09T03:41:41.831Z,2.80
2018-06-09T03:46:32.716Z,2.63
2018-06-09T03:51:23.595Z,5.30
2018-06-09T03:56:14.512Z,3.00
2018-06-09T04:01:05.433Z,2.93
2018-06-09T04:05:56.323Z,3.10
2018-06-09T04:10:47.222Z,2.90
2018-06-09T04:15:38.856Z,3.00
2018-06-09T04:20:30.480Z,2.83
2018-06-09T04:25:22.144Z,3.23
2018-06-09T04:30:13.023Z,2.77
2018-06-09T04:35:04.016Z,3.07
2018-06-09T04:39:54.987Z,2.70
2018-06-09T04:44:45.828Z,2.70
2018-06-09T04:49:36.715Z,3.07
2018-06-09T04:54:28.335Z,3.63
2018-06-09T04:59:19.296Z,2.70
2018-06-09T05:04:10.186Z,2.93
2018-06-09T05:09:01.821Z,2.87
2018-06-09T05:13:53.443Z,3.00
2018-06-09T05:18:44.432Z,2.43
2018-06-09T05:23:35.319Z,2.73
2018-06-09T05:28:26.211Z,2.67
2018-06-09T05:33:17.830Z,3.03
2018-06-09T05:38:09.459Z,3.50
2018-06-09T05:43:00.439Z,2.83
2018-06-09T05:47:51.322Z,3.63
2018-06-09T05:52:43.077Z,3.70
2018-06-09T05:57:34.027Z,3.70
2018-06-09T06:02:24.955Z,3.50
2018-06-09T06:07:15.839Z,2.70
2018-06-09T06:12:06.788Z,6.43
2018-06-09T06:16:57.675Z,3.07
2018-06-09T06:21:48.611Z,3.50
2018-06-09T06:26:39.487Z,6.10
2018-06-09T06:31:31.131Z,4.03
2018-06-09T06:36:22.755Z,3.47
2018-06-09T06:41:14.379Z,3.23
2018-06-09T06:46:05.263Z,2.93
2018-06-09T06:50:56.181Z,3.53
2018-06-09T06:55:47.072Z,4.03
2018-06-09T07:00:37.946Z,3.80
2018-06-09T07:05:28.835Z,4.13
2018-06-09T07:10:19.728Z,3.30
2018-06-09T07:15:10.611Z,5.37
2018-06-09T07:20:02.304Z,2.73
2018-06-09T07:24:53.211Z,2.23
2018-06-09T07:29:44.119Z,3.27
2018-06-09T07:34:35.025Z,3.70
2018-06-09T07:39:25.946Z,3.10
2018-06-09T07:44:16.862Z,3.13
2018-06-09T07:49:08.509Z,2.83
2018-06-09T07:53:59.447Z,2.97
2018-06-09T07:58:50.323Z,3.50
2018-06-09T08:03:41.291Z,2.43
2018-06-09T08:08:32.179Z,2.97
2018-06-09T08:13:23.127Z,2.57
2018-06-09T08:18:14.019Z,2.57
2018-06-09T08:23:04.911Z,3.13
2018-06-09T08:27:56.539Z,2.23
2018-06-09T08:32:48.167Z,2.50
2018-06-09T08:37:39.179Z,2.70
2018-06-09T08:42:30.068Z,2.30
2018-06-09T08:47:21.003Z,2.07
2018-06-09T08:52:11.887Z,2.87
2018-06-09T08:57:02.779Z,2.50
2018-06-09T09:01:53.837Z,2.57
2018-06-09T09:06:44.759Z,2.50
2018-06-09T09:11:35.655Z,2.53
2018-06-09T09:16:26.548Z,2.37
2018-06-09T09:21:18.204Z,3.07
2018-06-09T09:26:09.093Z,3.10
2018-06-09T09:31:00.723Z,2.73
2018-06-09T09:35:52.360Z,2.93
2018-06-09T09:40:43.992Z,2.70
2018-06-09T09:45:34.879Z,2.83
2018-06-09T09:50:25.792Z,3.10
2018-06-09T09:55:16.687Z,3.10
2018-06-09T10:00:07.605Z,2.83
2018-06-09T10:04:58.491Z,3.40
2018-06-09T10:09:50.204Z,3.63
2018-06-09T10:14:41.187Z,3.20
2018-06-09T10:19:32.115Z,3.13
2018-06-09T10:24:23.004Z,2.97
2018-06-09T10:29:13.891Z,2.53
2018-06-09T10:34:05.583Z,3.40
2018-06-09T10:38:56.463Z,2.93
2018-06-09T10:43:48.082Z,2.80
2018-06-09T10:48:38.967Z,3.37
2018-06-09T10:53:29.859Z,2.70
2018-06-09T10:58:20.797Z,2.73
2018-06-09T11:03:12.559Z,3.10
2018-06-09T11:08:03.434Z,3.17
2018-06-09T11:12:54.332Z,2.90
2018-06-09T11:17:45.286Z,2.50
2018-06-09T11:22:36.208Z,2.50
2018-06-09T11:27:27.138Z,2.30
2018-06-09T11:32:18.027Z,2.13
2018-06-09T11:37:08.965Z,1.97
2018-06-09T11:41:59.863Z,2.40
2018-06-09T11:46:50.799Z,1.97
2018-06-09T11:51:41.683Z,2.60
2018-06-09T11:56:32.567Z,2.90
2018-06-09T12:01:23.455Z,2.40
2018-06-09T12:06:14.402Z,2.60
2018-06-09T12:11:05.349Z,2.40
2018-06-09T12:15:56.187Z,3.23
2018-06-09T12:20:47.067Z,2.50
2018-06-09T12:25:37.951Z,2.70
2018-06-09T12:30:28.846Z,2.80
2018-06-09T12:35:19.743Z,2.33
2018-06-09T12:40:10.628Z,2.50
2018-06-09T12:45:01.531Z,2.87
2018-06-09T12:49:52.419Z,2.70
2018-06-09T12:54:43.314Z,2.70
2018-06-09T12:59:34.198Z,2.67
2018-06-09T13:04:25.119Z,2.23
2018-06-09T13:09:16.829Z,2.47
2018-06-09T13:14:07.803Z,2.30
2018-06-09T13:18:58.635Z,3.13
2018-06-09T13:23:49.588Z,2.97
2018-06-09T13:28:40.474Z,2.57
2018-06-09T13:33:31.371Z,3.67
2018-06-09T13:38:23.155Z,3.00
2018-06-09T13:43:14.109Z,3.40
2018-06-09T13:48:04.994Z,2.97
2018-06-09T13:52:55.891Z,3.10
2018-06-09T13:57:46.780Z,3.00
2018-06-09T14:02:38.419Z,2.90
2018-06-09T14:07:29.384Z,2.90
2018-06-09T14:12:20.296Z,3.30
2018-06-09T14:17:11.184Z,3.30
2018-06-09T14:22:02.152Z,2.97
2018-06-09T14:26:53.096Z,3.20
2018-06-09T14:31:43.945Z,3.80
2018-06-09T14:36:34.839Z,4.10
2018-06-09T14:41:26.495Z,3.10
2018-06-09T14:46:17.387Z,4.17
2018-06-09T14:51:09.022Z,4.00
2018-06-09T14:56:00.723Z,3.67
2018-06-09T15:00:51.619Z,4.27
2018-06-09T15:05:42.532Z,3.43
2018-06-09T15:10:33.476Z,3.40
2018-06-09T15:15:24.392Z,5.13
2018-06-09T15:20:15.306Z,4.10
2018-06-09T15:25:06.193Z,3.63
2018-06-09T15:29:57.152Z,4.00
2018-06-09T15:34:48.063Z,4.00
2018-06-09T15:39:38.951Z,3.93
2018-06-09T15:44:29.860Z,3.90
2018-06-09T15:49:20.760Z,3.80
2018-06-09T15:54:12.394Z,4.20
2018-06-09T15:59:11.079Z,3.97
2018-06-09T16:04:02.715Z,4.63
2018-06-09T16:08:53.634Z,4.43
2018-06-09T16:13:44.523Z,3.90
2018-06-09T16:18:35.432Z,3.97
2018-06-09T16:23:26.327Z,3.90
2018-06-09T16:28:17.215Z,4.10
2018-06-09T16:33:08.103Z,4.43
2018-06-09T16:37:58.995Z,4.60
2018-06-09T16:42:49.890Z,3.80
2018-06-09T16:47:40.803Z,3.90
2018-06-09T16:52:32.441Z,3.93
2018-06-09T16:57:23.354Z,4.33
2018-06-09T17:02:14.983Z,3.93
2018-06-09T17:07:07.707Z,3.83
2018-06-09T17:11:58.620Z,3.90
2018-06-09T17:16:49.515Z,4.07
2018-06-09T17:21:40.411Z,4.30
2018-06-09T17:26:31.300Z,4.00
2018-06-09T17:31:22.196Z,4.07
2018-06-09T17:36:13.102Z,4.13
2018-06-09T17:41:03.997Z,4.60
2018-06-09T17:45:54.891Z,4.60
2018-06-09T17:50:46.535Z,4.50
2018-06-09T17:55:38.171Z,5.30
2018-06-09T18:00:29.799Z,4.17
2018-06-09T18:05:21.506Z,5.10
2018-06-09T18:10:13.892Z,5.40
2018-06-09T18:15:05.583Z,4.97
2018-06-09T18:19:56.472Z,11.43
2018-06-09T18:24:47.427Z,7.43
2018-06-09T18:29:38.319Z,15.63
2018-06-09T18:34:29.216Z,10.07
2018-06-09T18:39:20.103Z,7.57
2018-06-09T18:44:11.693Z,7.73
2018-06-09T18:49:03.099Z,13.47
2018-06-09T18:53:53.987Z,8.67
2018-06-09T18:58:45.657Z,10.57
2018-06-09T19:03:36.540Z,8.33
2018-06-09T19:08:27.455Z,9.27
2018-06-09T19:13:18.445Z,9.70
2018-06-09T19:18:09.347Z,10.20
2018-06-09T19:23:00.476Z,8.80
2018-06-09T19:27:51.407Z,9.63
2018-06-09T19:32:42.336Z,8.63
2018-06-09T19:37:33.372Z,9.30
2018-06-09T19:42:24.360Z,10.33
2018-06-09T19:47:15.248Z,8.87
2018-06-09T19:52:06.199Z,9.30
2018-06-09T19:56:57.116Z,10.97
2018-06-09T20:01:48.010Z,9.70
2018-06-09T20:06:38.896Z,9.30
2018-06-09T20:11:30.587Z,10.93
2018-06-09T20:16:21.512Z,7.97
2018-06-09T20:21:12.464Z,8.00
2018-06-09T20:26:03.339Z,9.17
2018-06-09T20:30:54.296Z,11.80
2018-06-09T20:35:45.148Z,11.70
2018-06-09T20:40:36.120Z,10.07
2018-06-09T20:45:27.842Z,8.20
2018-06-09T20:50:18.760Z,9.47
2018-06-09T20:55:09.647Z,10.63
2018-06-09T21:00:00.619Z,9.00
2018-06-09T21:04:51.521Z,9.53
2018-06-09T21:09:42.419Z,9.97
2018-06-09T21:14:33.363Z,13.30
2018-06-09T21:19:24.302Z,10.37
2018-06-09T21:24:15.291Z,9.80
2018-06-09T21:29:06.183Z,15.93
2018-06-09T21:39:39.659Z,8.95
2018-06-09T21:44:30.575Z,9.83
2018-06-09T21:49:21.531Z,9.43
2018-06-09T21:54:13.239Z,10.20
2018-06-09T21:59:04.127Z,10.60
2018-06-09T22:03:55.071Z,10.43
2018-06-09T22:08:45.975Z,12.53
2018-06-09T22:13:36.959Z,10.80
2018-06-09T22:18:27.927Z,9.30
2018-06-09T22:23:18.818Z,10.37
2018-06-09T22:28:09.759Z,14.63
2018-06-09T22:33:00.659Z,10.67
2018-06-09T22:37:51.556Z,11.00
2018-06-09T22:42:42.468Z,10.27
2018-06-09T22:47:33.404Z,11.63
2018-06-09T22:52:25.044Z,11.20
2018-06-09T22:57:15.928Z,10.23
2018-06-09T23:02:07.563Z,11.40
2018-06-09T23:06:59.216Z,10.60
2018-06-09T23:11:50.887Z,16.13
2018-06-09T23:16:41.851Z,10.70
2018-06-09T23:21:33.482Z,9.77
2018-06-09T23:26:24.474Z,10.87
2018-06-09T23:31:15.360Z,12.00
2018-06-09T23:36:06.259Z,10.60
2018-06-09T23:40:57.155Z,10.63
2018-06-09T23:45:48.037Z,11.17
2018-06-09T23:50:38.951Z,11.80
2018-06-09T23:55:29.848Z,11.50
